sensor_id;sensor_type;location;lat;lon;timestamp;P1;durP1;ratioP1;P2;durP2;ratioP2
46723;SDS011;32463;48.298;11.620;2023-12-04T00:00:07;16.90;;;7.25;;
46723;SDS011;32463;48.298;11.620;2023-12-04T00:02:34;10.75;;;4.03;;
46723;SDS011;32463;48.298;11.620;2023-12-04T00:05:01;18.50;;;8.25;;
46723;SDS011;32463;48.298;11.620;2023-12-04T00:07:27;16.40;;;7.28;;
46723;SDS011;32463;48.298;11.620;2023-12-04T00:09:54;18.02;;;7.88;;
46723;SDS011;32463;48.298;11.620;2023-12-04T00:12:21;13.63;;;6.93;;
46723;SDS011;32463;48.298;11.620;2023-12-04T00:14:47;14.98;;;7.65;;
46723;SDS011;32463;48.298;11.620;2023-12-04T00:17:14;15.85;;;6.95;;
46723;SDS011;32463;48.298;11.620;2023-12-04T00:19:40;19.58;;;9.40;;
46723;SDS011;32463;48.298;11.620;2023-12-04T00:22:07;15.90;;;7.80;;
46723;SDS011;32463;48.298;11.620;2023-12-04T00:24:33;21.50;;;7.82;;
46723;SDS011;32463;48.298;11.620;2023-12-04T00:27:00;18.92;;;8.43;;
46723;SDS011;32463;48.298;11.620;2023-12-04T00:29:26;16.05;;;6.80;;
46723;SDS011;32463;48.298;11.620;2023-12-04T00:31:52;11.88;;;6.78;;
46723;SDS011;32463;48.298;11.620;2023-12-04T00:34:19;11.40;;;6.95;;
46723;SDS011;32463;48.298;11.620;2023-12-04T00:36:45;13.80;;;6.45;;
46723;SDS011;32463;48.298;11.620;2023-12-04T00:39:12;13.25;;;6.40;;
46723;SDS011;32463;48.298;11.620;2023-12-04T00:41:39;13.65;;;7.40;;
46723;SDS011;32463;48.298;11.620;2023-12-04T00:44:05;14.20;;;6.03;;
46723;SDS011;32463;48.298;11.620;2023-12-04T00:46:32;15.25;;;7.00;;
46723;SDS011;32463;48.298;11.620;2023-12-04T00:48:58;15.27;;;8.13;;
46723;SDS011;32463;48.298;11.620;2023-12-04T00:51:25;13.45;;;5.82;;
46723;SDS011;32463;48.298;11.620;2023-12-04T00:53:51;19.13;;;7.78;;
46723;SDS011;32463;48.298;11.620;2023-12-04T00:56:18;18.48;;;7.70;;
46723;SDS011;32463;48.298;11.620;2023-12-04T00:58:45;14.88;;;7.75;;
46723;SDS011;32463;48.298;11.620;2023-12-04T01:01:12;11.27;;;5.05;;
46723;SDS011;32463;48.298;11.620;2023-12-04T01:03:38;15.00;;;6.47;;
46723;SDS011;32463;48.298;11.620;2023-12-04T01:06:05;16.33;;;5.90;;
46723;SDS011;32463;48.298;11.620;2023-12-04T01:08:32;14.32;;;6.35;;
46723;SDS011;32463;48.298;11.620;2023-12-04T01:10:58;11.43;;;6.65;;
46723;SDS011;32463;48.298;11.620;2023-12-04T01:13:26;17.23;;;7.18;;
46723;SDS011;32463;48.298;11.620;2023-12-04T01:15:53;9.57;;;5.97;;
46723;SDS011;32463;48.298;11.620;2023-12-04T01:18:19;12.65;;;6.57;;
46723;SDS011;32463;48.298;11.620;2023-12-04T01:20:46;13.23;;;6.07;;
46723;SDS011;32463;48.298;11.620;2023-12-04T01:23:12;16.17;;;6.95;;
46723;SDS011;32463;48.298;11.620;2023-12-04T01:25:39;10.35;;;6.78;;
46723;SDS011;32463;48.298;11.620;2023-12-04T01:28:05;14.00;;;6.55;;
46723;SDS011;32463;48.298;11.620;2023-12-04T01:30:32;15.40;;;7.57;;
46723;SDS011;32463;48.298;11.620;2023-12-04T01:32:58;17.67;;;6.78;;
46723;SDS011;32463;48.298;11.620;2023-12-04T01:35:25;14.20;;;7.40;;
46723;SDS011;32463;48.298;11.620;2023-12-04T01:37:51;10.55;;;5.70;;
46723;SDS011;32463;48.298;11.620;2023-12-04T01:40:17;19.85;;;7.55;;
46723;SDS011;32463;48.298;11.620;2023-12-04T01:42:44;11.45;;;6.00;;
46723;SDS011;32463;48.298;11.620;2023-12-04T01:45:10;11.68;;;6.22;;
46723;SDS011;32463;48.298;11.620;2023-12-04T01:47:37;19.25;;;7.57;;
46723;SDS011;32463;48.298;11.620;2023-12-04T01:50:04;15.43;;;7.65;;
46723;SDS011;32463;48.298;11.620;2023-12-04T01:52:32;13.75;;;7.30;;
46723;SDS011;32463;48.298;11.620;2023-12-04T01:55:00;14.50;;;5.47;;
46723;SDS011;32463;48.298;11.620;2023-12-04T01:57:27;14.25;;;7.05;;
46723;SDS011;32463;48.298;11.620;2023-12-04T01:59:53;11.18;;;5.68;;
46723;SDS011;32463;48.298;11.620;2023-12-04T02:02:20;13.57;;;7.45;;
46723;SDS011;32463;48.298;11.620;2023-12-04T02:04:46;10.73;;;6.57;;
46723;SDS011;32463;48.298;11.620;2023-12-04T02:07:13;15.73;;;6.53;;
46723;SDS011;32463;48.298;11.620;2023-12-04T02:09:39;15.82;;;6.18;;
46723;SDS011;32463;48.298;11.620;2023-12-04T02:12:06;12.90;;;6.97;;
46723;SDS011;32463;48.298;11.620;2023-12-04T02:14:32;15.82;;;6.82;;
46723;SDS011;32463;48.298;11.620;2023-12-04T02:16:59;15.25;;;5.35;;
46723;SDS011;32463;48.298;11.620;2023-12-04T02:19:28;13.85;;;6.95;;
46723;SDS011;32463;48.298;11.620;2023-12-04T02:21:54;18.77;;;6.78;;
46723;SDS011;32463;48.298;11.620;2023-12-04T02:24:21;12.13;;;5.97;;
46723;SDS011;32463;48.298;11.620;2023-12-04T02:26:49;16.90;;;7.20;;
46723;SDS011;32463;48.298;11.620;2023-12-04T02:29:29;10.40;;;5.93;;
46723;SDS011;32463;48.298;11.620;2023-12-04T02:31:58;17.67;;;7.03;;
46723;SDS011;32463;48.298;11.620;2023-12-04T02:34:28;17.67;;;8.55;;
46723;SDS011;32463;48.298;11.620;2023-12-04T02:36:57;23.30;;;8.35;;
46723;SDS011;32463;48.298;11.620;2023-12-04T02:39:25;17.70;;;7.53;;
46723;SDS011;32463;48.298;11.620;2023-12-04T02:41:53;16.83;;;8.10;;
46723;SDS011;32463;48.298;11.620;2023-12-04T02:44:19;13.15;;;6.18;;
46723;SDS011;32463;48.298;11.620;2023-12-04T02:46:46;17.75;;;8.15;;
46723;SDS011;32463;48.298;11.620;2023-12-04T02:49:13;16.55;;;7.53;;
46723;SDS011;32463;48.298;11.620;2023-12-04T02:51:42;13.35;;;6.20;;
46723;SDS011;32463;48.298;11.620;2023-12-04T02:54:09;19.35;;;7.00;;
46723;SDS011;32463;48.298;11.620;2023-12-04T02:56:35;13.85;;;6.10;;
46723;SDS011;32463;48.298;11.620;2023-12-04T02:59:01;16.50;;;7.28;;
46723;SDS011;32463;48.298;11.620;2023-12-04T03:01:28;10.45;;;6.32;;
46723;SDS011;32463;48.298;11.620;2023-12-04T03:03:55;16.95;;;6.85;;
46723;SDS011;32463;48.298;11.620;2023-12-04T03:06:21;16.63;;;7.07;;
46723;SDS011;32463;48.298;11.620;2023-12-04T03:08:48;15.45;;;6.63;;
46723;SDS011;32463;48.298;11.620;2023-12-04T03:11:14;13.40;;;6.90;;
46723;SDS011;32463;48.298;11.620;2023-12-04T03:13:40;14.52;;;6.68;;
46723;SDS011;32463;48.298;11.620;2023-12-04T03:16:14;13.73;;;6.75;;
46723;SDS011;32463;48.298;11.620;2023-12-04T03:18:42;12.27;;;6.78;;
46723;SDS011;32463;48.298;11.620;2023-12-04T03:21:12;15.65;;;7.05;;
46723;SDS011;32463;48.298;11.620;2023-12-04T03:23:39;9.88;;;5.97;;
46723;SDS011;32463;48.298;11.620;2023-12-04T03:26:05;14.07;;;6.60;;
46723;SDS011;32463;48.298;11.620;2023-12-04T03:28:32;16.90;;;6.15;;
46723;SDS011;32463;48.298;11.620;2023-12-04T03:30:59;17.25;;;8.23;;
46723;SDS011;32463;48.298;11.620;2023-12-04T03:33:25;14.43;;;5.97;;
46723;SDS011;32463;48.298;11.620;2023-12-04T03:35:51;14.80;;;7.18;;
46723;SDS011;32463;48.298;11.620;2023-12-04T03:38:18;14.93;;;7.07;;
46723;SDS011;32463;48.298;11.620;2023-12-04T03:40:44;17.52;;;7.45;;
46723;SDS011;32463;48.298;11.620;2023-12-04T03:43:11;18.50;;;6.10;;
46723;SDS011;32463;48.298;11.620;2023-12-04T03:45:37;16.33;;;6.88;;
46723;SDS011;32463;48.298;11.620;2023-12-04T03:48:04;17.50;;;6.93;;
46723;SDS011;32463;48.298;11.620;2023-12-04T03:50:30;18.25;;;7.00;;
46723;SDS011;32463;48.298;11.620;2023-12-04T03:52:57;13.15;;;5.28;;
46723;SDS011;32463;48.298;11.620;2023-12-04T03:55:23;15.07;;;6.60;;
46723;SDS011;32463;48.298;11.620;2023-12-04T03:57:50;15.98;;;6.15;;
46723;SDS011;32463;48.298;11.620;2023-12-04T04:00:16;10.82;;;6.05;;
46723;SDS011;32463;48.298;11.620;2023-12-04T04:02:43;12.57;;;6.28;;
46723;SDS011;32463;48.298;11.620;2023-12-04T04:05:10;16.35;;;7.30;;
46723;SDS011;32463;48.298;11.620;2023-12-04T04:07:36;12.32;;;5.75;;
46723;SDS011;32463;48.298;11.620;2023-12-04T04:10:03;15.32;;;6.25;;
46723;SDS011;32463;48.298;11.620;2023-12-04T04:12:30;18.08;;;6.95;;
46723;SDS011;32463;48.298;11.620;2023-12-04T04:14:57;13.38;;;5.82;;
46723;SDS011;32463;48.298;11.620;2023-12-04T04:17:23;17.13;;;5.90;;
46723;SDS011;32463;48.298;11.620;2023-12-04T04:19:51;12.73;;;5.38;;
46723;SDS011;32463;48.298;11.620;2023-12-04T04:22:21;13.57;;;6.03;;
46723;SDS011;32463;48.298;11.620;2023-12-04T04:27:15;9.75;;;5.57;;
46723;SDS011;32463;48.298;11.620;2023-12-04T04:29:41;18.80;;;6.22;;
46723;SDS011;32463;48.298;11.620;2023-12-04T04:32:08;17.38;;;6.38;;
46723;SDS011;32463;48.298;11.620;2023-12-04T04:34:34;17.35;;;6.43;;
46723;SDS011;32463;48.298;11.620;2023-12-04T04:37:01;16.13;;;7.75;;
46723;SDS011;32463;48.298;11.620;2023-12-04T04:39:27;18.58;;;6.22;;
46723;SDS011;32463;48.298;11.620;2023-12-04T04:41:53;13.00;;;6.28;;
46723;SDS011;32463;48.298;11.620;2023-12-04T04:44:20;13.50;;;5.43;;
46723;SDS011;32463;48.298;11.620;2023-12-04T04:46:46;15.50;;;7.15;;
46723;SDS011;32463;48.298;11.620;2023-12-04T04:49:13;10.93;;;4.97;;
46723;SDS011;32463;48.298;11.620;2023-12-04T04:51:40;15.75;;;6.53;;
46723;SDS011;32463;48.298;11.620;2023-12-04T04:54:06;18.20;;;8.43;;
46723;SDS011;32463;48.298;11.620;2023-12-04T04:56:33;12.77;;;6.22;;
46723;SDS011;32463;48.298;11.620;2023-12-04T04:58:59;15.07;;;7.07;;
46723;SDS011;32463;48.298;11.620;2023-12-04T05:01:25;11.60;;;6.05;;
46723;SDS011;32463;48.298;11.620;2023-12-04T05:03:52;15.43;;;7.00;;
46723;SDS011;32463;48.298;11.620;2023-12-04T05:06:19;12.02;;;6.30;;
46723;SDS011;32463;48.298;11.620;2023-12-04T05:08:47;15.52;;;6.80;;
46723;SDS011;32463;48.298;11.620;2023-12-04T05:11:15;13.90;;;7.05;;
46723;SDS011;32463;48.298;11.620;2023-12-04T05:13:42;13.15;;;7.15;;
46723;SDS011;32463;48.298;11.620;2023-12-04T05:16:09;17.63;;;6.60;;
46723;SDS011;32463;48.298;11.620;2023-12-04T05:18:35;15.40;;;7.50;;
46723;SDS011;32463;48.298;11.620;2023-12-04T05:21:02;22.17;;;8.77;;
46723;SDS011;32463;48.298;11.620;2023-12-04T05:23:28;18.02;;;8.13;;
46723;SDS011;32463;48.298;11.620;2023-12-04T05:25:55;13.00;;;7.63;;
46723;SDS011;32463;48.298;11.620;2023-12-04T05:28:21;20.30;;;8.55;;
46723;SDS011;32463;48.298;11.620;2023-12-04T05:30:48;12.85;;;6.57;;
46723;SDS011;32463;48.298;11.620;2023-12-04T05:33:14;14.50;;;7.00;;
46723;SDS011;32463;48.298;11.620;2023-12-04T05:35:41;13.63;;;6.25;;
46723;SDS011;32463;48.298;11.620;2023-12-04T05:38:07;18.50;;;7.10;;
46723;SDS011;32463;48.298;11.620;2023-12-04T05:40:34;14.93;;;7.68;;
46723;SDS011;32463;48.298;11.620;2023-12-04T05:43:00;14.05;;;7.20;;
46723;SDS011;32463;48.298;11.620;2023-12-04T05:45:27;19.40;;;8.52;;
46723;SDS011;32463;48.298;11.620;2023-12-04T05:47:53;17.35;;;9.55;;
46723;SDS011;32463;48.298;11.620;2023-12-04T05:50:21;15.23;;;6.45;;
46723;SDS011;32463;48.298;11.620;2023-12-04T05:52:47;24.40;;;8.45;;
46723;SDS011;32463;48.298;11.620;2023-12-04T05:55:13;16.00;;;7.07;;
46723;SDS011;32463;48.298;11.620;2023-12-04T05:57:40;16.40;;;7.70;;
46723;SDS011;32463;48.298;11.620;2023-12-04T06:02:37;9.02;;;5.55;;
46723;SDS011;32463;48.298;11.620;2023-12-04T06:05:05;8.88;;;5.57;;
46723;SDS011;32463;48.298;11.620;2023-12-04T06:07:32;14.68;;;7.03;;
46723;SDS011;32463;48.298;11.620;2023-12-04T06:09:59;11.02;;;6.70;;
46723;SDS011;32463;48.298;11.620;2023-12-04T06:12:25;22.80;;;9.00;;
46723;SDS011;32463;48.298;11.620;2023-12-04T06:14:52;10.07;;;6.20;;
46723;SDS011;32463;48.298;11.620;2023-12-04T06:17:18;14.55;;;7.38;;
46723;SDS011;32463;48.298;11.620;2023-12-04T06:19:46;16.13;;;7.43;;
46723;SDS011;32463;48.298;11.620;2023-12-04T06:22:12;15.13;;;7.18;;
46723;SDS011;32463;48.298;11.620;2023-12-04T06:24:39;14.70;;;6.63;;
46723;SDS011;32463;48.298;11.620;2023-12-04T06:27:07;14.48;;;7.72;;
46723;SDS011;32463;48.298;11.620;2023-12-04T06:29:37;15.43;;;9.38;;
46723;SDS011;32463;48.298;11.620;2023-12-04T06:32:04;16.02;;;6.95;;
46723;SDS011;32463;48.298;11.620;2023-12-04T06:34:31;17.25;;;6.90;;
46723;SDS011;32463;48.298;11.620;2023-12-04T06:36:57;20.70;;;8.00;;
46723;SDS011;32463;48.298;11.620;2023-12-04T06:39:25;18.10;;;7.30;;
46723;SDS011;32463;48.298;11.620;2023-12-04T06:41:57;14.20;;;6.07;;
46723;SDS011;32463;48.298;11.620;2023-12-04T06:44:24;13.63;;;6.78;;
46723;SDS011;32463;48.298;11.620;2023-12-04T06:46:50;14.05;;;7.55;;
46723;SDS011;32463;48.298;11.620;2023-12-04T06:49:18;12.75;;;6.97;;
46723;SDS011;32463;48.298;11.620;2023-12-04T06:51:45;16.92;;;7.45;;
46723;SDS011;32463;48.298;11.620;2023-12-04T06:54:11;17.45;;;6.28;;
46723;SDS011;32463;48.298;11.620;2023-12-04T06:56:38;14.85;;;6.15;;
46723;SDS011;32463;48.298;11.620;2023-12-04T06:59:05;15.50;;;7.25;;
46723;SDS011;32463;48.298;11.620;2023-12-04T07:01:31;17.02;;;6.35;;
46723;SDS011;32463;48.298;11.620;2023-12-04T07:03:58;19.65;;;9.18;;
46723;SDS011;32463;48.298;11.620;2023-12-04T07:06:24;13.85;;;6.70;;
46723;SDS011;32463;48.298;11.620;2023-12-04T07:08:51;17.40;;;8.52;;
46723;SDS011;32463;48.298;11.620;2023-12-04T07:11:17;19.77;;;7.30;;
46723;SDS011;32463;48.298;11.620;2023-12-04T07:13:44;18.05;;;8.05;;
46723;SDS011;32463;48.298;11.620;2023-12-04T07:16:10;14.20;;;6.82;;
46723;SDS011;32463;48.298;11.620;2023-12-04T07:18:37;19.60;;;8.23;;
46723;SDS011;32463;48.298;11.620;2023-12-04T07:21:04;22.50;;;7.93;;
46723;SDS011;32463;48.298;11.620;2023-12-04T07:23:30;20.23;;;8.68;;
46723;SDS011;32463;48.298;11.620;2023-12-04T07:25:57;13.73;;;7.68;;
46723;SDS011;32463;48.298;11.620;2023-12-04T07:28:23;18.27;;;7.28;;
46723;SDS011;32463;48.298;11.620;2023-12-04T07:30:50;15.60;;;8.13;;
46723;SDS011;32463;48.298;11.620;2023-12-04T07:33:16;16.40;;;7.35;;
46723;SDS011;32463;48.298;11.620;2023-12-04T07:35:43;18.52;;;7.72;;
46723;SDS011;32463;48.298;11.620;2023-12-04T07:38:10;18.00;;;7.80;;
46723;SDS011;32463;48.298;11.620;2023-12-04T07:40:36;28.40;;;8.27;;
46723;SDS011;32463;48.298;11.620;2023-12-04T07:43:03;18.08;;;8.60;;
46723;SDS011;32463;48.298;11.620;2023-12-04T07:47:56;12.32;;;6.18;;
46723;SDS011;32463;48.298;11.620;2023-12-04T07:50:23;12.05;;;6.38;;
46723;SDS011;32463;48.298;11.620;2023-12-04T07:52:51;20.27;;;8.18;;
46723;SDS011;32463;48.298;11.620;2023-12-04T07:55:17;23.17;;;9.57;;
46723;SDS011;32463;48.298;11.620;2023-12-04T07:57:44;20.38;;;7.68;;
46723;SDS011;32463;48.298;11.620;2023-12-04T08:00:10;19.85;;;8.57;;
46723;SDS011;32463;48.298;11.620;2023-12-04T08:05:04;14.95;;;7.80;;
46723;SDS011;32463;48.298;11.620;2023-12-04T08:07:31;17.50;;;8.18;;
46723;SDS011;32463;48.298;11.620;2023-12-04T08:09:58;19.27;;;8.88;;
46723;SDS011;32463;48.298;11.620;2023-12-04T08:12:24;17.23;;;8.70;;
46723;SDS011;32463;48.298;11.620;2023-12-04T08:14:52;25.92;;;10.02;;
46723;SDS011;32463;48.298;11.620;2023-12-04T08:17:18;23.77;;;9.80;;
46723;SDS011;32463;48.298;11.620;2023-12-04T08:19:45;22.17;;;9.10;;
46723;SDS011;32463;48.298;11.620;2023-12-04T08:22:11;21.13;;;8.73;;
46723;SDS011;32463;48.298;11.620;2023-12-04T08:24:38;19.63;;;8.45;;
46723;SDS011;32463;48.298;11.620;2023-12-04T08:27:04;19.27;;;7.80;;
46723;SDS011;32463;48.298;11.620;2023-12-04T08:29:31;21.95;;;9.32;;
46723;SDS011;32463;48.298;11.620;2023-12-04T08:31:57;22.08;;;10.35;;
46723;SDS011;32463;48.298;11.620;2023-12-04T08:34:24;26.88;;;9.65;;
46723;SDS011;32463;48.298;11.620;2023-12-04T08:36:50;23.05;;;9.50;;
46723;SDS011;32463;48.298;11.620;2023-12-04T08:39:17;17.92;;;8.63;;
46723;SDS011;32463;48.298;11.620;2023-12-04T08:41:46;16.60;;;8.93;;
46723;SDS011;32463;48.298;11.620;2023-12-04T08:44:13;21.23;;;10.48;;
46723;SDS011;32463;48.298;11.620;2023-12-04T08:46:41;20.30;;;9.77;;
46723;SDS011;32463;48.298;11.620;2023-12-04T08:49:08;25.60;;;9.30;;
46723;SDS011;32463;48.298;11.620;2023-12-04T08:51:34;22.65;;;10.13;;
46723;SDS011;32463;48.298;11.620;2023-12-04T08:54:01;19.08;;;9.57;;
46723;SDS011;32463;48.298;11.620;2023-12-04T08:56:27;19.80;;;8.90;;
46723;SDS011;32463;48.298;11.620;2023-12-04T08:58:54;22.42;;;9.13;;
46723;SDS011;32463;48.298;11.620;2023-12-04T09:01:22;24.20;;;9.77;;
46723;SDS011;32463;48.298;11.620;2023-12-04T09:03:49;18.17;;;9.18;;
46723;SDS011;32463;48.298;11.620;2023-12-04T09:06:15;19.40;;;8.35;;
46723;SDS011;32463;48.298;11.620;2023-12-04T09:08:42;19.98;;;9.23;;
46723;SDS011;32463;48.298;11.620;2023-12-04T09:11:09;21.15;;;8.63;;
46723;SDS011;32463;48.298;11.620;2023-12-04T09:13:36;22.88;;;8.85;;
46723;SDS011;32463;48.298;11.620;2023-12-04T09:16:03;19.65;;;9.80;;
46723;SDS011;32463;48.298;11.620;2023-12-04T09:18:30;16.35;;;8.18;;
46723;SDS011;32463;48.298;11.620;2023-12-04T09:20:57;21.95;;;10.43;;
46723;SDS011;32463;48.298;11.620;2023-12-04T09:23:23;20.67;;;10.70;;
46723;SDS011;32463;48.298;11.620;2023-12-04T09:25:50;23.75;;;10.18;;
46723;SDS011;32463;48.298;11.620;2023-12-04T09:28:16;24.73;;;10.45;;
46723;SDS011;32463;48.298;11.620;2023-12-04T09:30:43;23.73;;;10.25;;
46723;SDS011;32463;48.298;11.620;2023-12-04T09:33:09;25.95;;;10.57;;
46723;SDS011;32463;48.298;11.620;2023-12-04T09:35:36;19.63;;;10.02;;
46723;SDS011;32463;48.298;11.620;2023-12-04T09:38:02;23.92;;;10.15;;
46723;SDS011;32463;48.298;11.620;2023-12-04T09:40:29;22.33;;;9.60;;
46723;SDS011;32463;48.298;11.620;2023-12-04T09:42:55;20.73;;;8.05;;
46723;SDS011;32463;48.298;11.620;2023-12-04T09:45:23;23.35;;;8.93;;
46723;SDS011;32463;48.298;11.620;2023-12-04T09:47:50;19.08;;;8.10;;
46723;SDS011;32463;48.298;11.620;2023-12-04T09:52:47;19.13;;;8.88;;
46723;SDS011;32463;48.298;11.620;2023-12-04T09:55:15;20.98;;;9.55;;
46723;SDS011;32463;48.298;11.620;2023-12-04T09:57:43;24.70;;;10.25;;
46723;SDS011;32463;48.298;11.620;2023-12-04T10:00:11;21.67;;;9.68;;
46723;SDS011;32463;48.298;11.620;2023-12-04T10:02:40;21.00;;;8.57;;
46723;SDS011;32463;48.298;11.620;2023-12-04T10:05:10;20.05;;;9.95;;
46723;SDS011;32463;48.298;11.620;2023-12-04T10:07:37;18.73;;;9.18;;
46723;SDS011;32463;48.298;11.620;2023-12-04T10:10:04;24.40;;;9.93;;
46723;SDS011;32463;48.298;11.620;2023-12-04T10:12:31;18.73;;;7.90;;
46723;SDS011;32463;48.298;11.620;2023-12-04T10:15:06;17.13;;;9.25;;
46723;SDS011;32463;48.298;11.620;2023-12-04T10:17:35;23.23;;;9.77;;
46723;SDS011;32463;48.298;11.620;2023-12-04T10:20:07;25.77;;;9.77;;
46723;SDS011;32463;48.298;11.620;2023-12-04T10:22:52;22.23;;;9.85;;
46723;SDS011;32463;48.298;11.620;2023-12-04T10:25:23;21.80;;;10.10;;
46723;SDS011;32463;48.298;11.620;2023-12-04T10:27:53;26.55;;;8.77;;
46723;SDS011;32463;48.298;11.620;2023-12-04T10:30:27;20.08;;;9.18;;
46723;SDS011;32463;48.298;11.620;2023-12-04T10:32:56;16.98;;;8.30;;
46723;SDS011;32463;48.298;11.620;2023-12-04T10:35:28;21.65;;;10.15;;
46723;SDS011;32463;48.298;11.620;2023-12-04T10:37:56;29.30;;;13.52;;
46723;SDS011;32463;48.298;11.620;2023-12-04T10:40:26;28.15;;;12.07;;
46723;SDS011;32463;48.298;11.620;2023-12-04T10:45:49;19.85;;;10.18;;
46723;SDS011;32463;48.298;11.620;2023-12-04T10:48:17;26.58;;;12.50;;
46723;SDS011;32463;48.298;11.620;2023-12-04T10:50:48;28.40;;;13.05;;
46723;SDS011;32463;48.298;11.620;2023-12-04T10:53:16;37.25;;;15.80;;
46723;SDS011;32463;48.298;11.620;2023-12-04T10:55:43;25.90;;;12.10;;
46723;SDS011;32463;48.298;11.620;2023-12-04T10:58:11;25.83;;;11.73;;
46723;SDS011;32463;48.298;11.620;2023-12-04T11:00:42;26.73;;;12.07;;
46723;SDS011;32463;48.298;11.620;2023-12-04T11:03:55;22.42;;;10.75;;
46723;SDS011;32463;48.298;11.620;2023-12-04T11:08:32;26.77;;;11.73;;
46723;SDS011;32463;48.298;11.620;2023-12-04T11:11:02;26.73;;;11.85;;
46723;SDS011;32463;48.298;11.620;2023-12-04T11:13:34;26.38;;;11.20;;
46723;SDS011;32463;48.298;11.620;2023-12-04T11:18:51;21.27;;;9.40;;
46723;SDS011;32463;48.298;11.620;2023-12-04T11:21:23;24.30;;;11.88;;
46723;SDS011;32463;48.298;11.620;2023-12-04T11:23:50;21.75;;;11.15;;
46723;SDS011;32463;48.298;11.620;2023-12-04T11:26:17;19.50;;;9.18;;
46723;SDS011;32463;48.298;11.620;2023-12-04T11:28:44;18.45;;;8.52;;
46723;SDS011;32463;48.298;11.620;2023-12-04T11:31:13;19.50;;;9.45;;
46723;SDS011;32463;48.298;11.620;2023-12-04T11:33:41;23.13;;;9.82;;
46723;SDS011;32463;48.298;11.620;2023-12-04T11:38:40;18.20;;;8.35;;
46723;SDS011;32463;48.298;11.620;2023-12-04T11:41:30;21.33;;;9.90;;
46723;SDS011;32463;48.298;11.620;2023-12-04T11:43:56;17.15;;;8.38;;
46723;SDS011;32463;48.298;11.620;2023-12-04T11:46:23;23.63;;;9.30;;
46723;SDS011;32463;48.298;11.620;2023-12-04T11:48:55;22.17;;;9.77;;
46723;SDS011;32463;48.298;11.620;2023-12-04T11:54:09;17.35;;;8.30;;
46723;SDS011;32463;48.298;11.620;2023-12-04T11:56:36;16.75;;;8.45;;
46723;SDS011;32463;48.298;11.620;2023-12-04T12:01:35;19.80;;;9.13;;
46723;SDS011;32463;48.298;11.620;2023-12-04T12:04:06;17.60;;;7.80;;
46723;SDS011;32463;48.298;11.620;2023-12-04T12:06:33;22.30;;;9.48;;
46723;SDS011;32463;48.298;11.620;2023-12-04T12:08:59;21.70;;;8.93;;
46723;SDS011;32463;48.298;11.620;2023-12-04T12:11:26;17.23;;;8.25;;
46723;SDS011;32463;48.298;11.620;2023-12-04T12:13:53;21.77;;;9.65;;
46723;SDS011;32463;48.298;11.620;2023-12-04T12:16:20;18.88;;;8.35;;
46723;SDS011;32463;48.298;11.620;2023-12-04T12:18:46;14.48;;;7.30;;
46723;SDS011;32463;48.298;11.620;2023-12-04T12:23:40;18.50;;;8.70;;
46723;SDS011;32463;48.298;11.620;2023-12-04T12:26:06;29.85;;;11.35;;
46723;SDS011;32463;48.298;11.620;2023-12-04T12:28:34;25.65;;;12.45;;
46723;SDS011;32463;48.298;11.620;2023-12-04T12:31:02;24.15;;;11.65;;
46723;SDS011;32463;48.298;11.620;2023-12-04T12:33:29;23.23;;;10.40;;
46723;SDS011;32463;48.298;11.620;2023-12-04T12:35:56;17.48;;;9.20;;
46723;SDS011;32463;48.298;11.620;2023-12-04T12:38:24;20.95;;;9.57;;
46723;SDS011;32463;48.298;11.620;2023-12-04T12:40:51;23.60;;;11.35;;
46723;SDS011;32463;48.298;11.620;2023-12-04T12:43:19;23.83;;;10.50;;
46723;SDS011;32463;48.298;11.620;2023-12-04T12:45:48;22.15;;;10.68;;
46723;SDS011;32463;48.298;11.620;2023-12-04T12:48:15;19.35;;;9.57;;
46723;SDS011;32463;48.298;11.620;2023-12-04T12:50:43;24.33;;;11.68;;
46723;SDS011;32463;48.298;11.620;2023-12-04T12:53:10;22.80;;;12.27;;
46723;SDS011;32463;48.298;11.620;2023-12-04T12:55:41;22.52;;;9.88;;
46723;SDS011;32463;48.298;11.620;2023-12-04T12:58:11;22.25;;;9.90;;
46723;SDS011;32463;48.298;11.620;2023-12-04T13:00:39;19.88;;;9.40;;
46723;SDS011;32463;48.298;11.620;2023-12-04T13:03:17;23.13;;;10.77;;
46723;SDS011;32463;48.298;11.620;2023-12-04T13:05:47;24.77;;;11.32;;
46723;SDS011;32463;48.298;11.620;2023-12-04T13:08:15;22.60;;;11.07;;
46723;SDS011;32463;48.298;11.620;2023-12-04T13:13:11;27.23;;;11.45;;
46723;SDS011;32463;48.298;11.620;2023-12-04T13:15:40;24.23;;;11.10;;
46723;SDS011;32463;48.298;11.620;2023-12-04T13:18:07;23.33;;;11.63;;
46723;SDS011;32463;48.298;11.620;2023-12-04T13:20:34;23.08;;;10.25;;
46723;SDS011;32463;48.298;11.620;2023-12-04T13:23:01;20.48;;;10.32;;
46723;SDS011;32463;48.298;11.620;2023-12-04T13:25:27;23.30;;;10.57;;
46723;SDS011;32463;48.298;11.620;2023-12-04T13:27:54;23.17;;;10.30;;
46723;SDS011;32463;48.298;11.620;2023-12-04T13:30:21;23.45;;;11.35;;
46723;SDS011;32463;48.298;11.620;2023-12-04T13:35:15;21.25;;;10.25;;
46723;SDS011;32463;48.298;11.620;2023-12-04T13:40:08;23.35;;;10.75;;
46723;SDS011;32463;48.298;11.620;2023-12-04T13:42:40;20.73;;;9.43;;
46723;SDS011;32463;48.298;11.620;2023-12-04T13:45:25;25.40;;;10.32;;
46723;SDS011;32463;48.298;11.620;2023-12-04T13:47:51;23.48;;;10.65;;
46723;SDS011;32463;48.298;11.620;2023-12-04T13:50:18;19.92;;;9.93;;
46723;SDS011;32463;48.298;11.620;2023-12-04T13:52:44;26.52;;;10.52;;
46723;SDS011;32463;48.298;11.620;2023-12-04T13:55:18;23.02;;;10.45;;
46723;SDS011;32463;48.298;11.620;2023-12-04T13:57:46;23.25;;;10.45;;
46723;SDS011;32463;48.298;11.620;2023-12-04T14:00:34;19.33;;;9.93;;
46723;SDS011;32463;48.298;11.620;2023-12-04T14:03:01;24.08;;;10.60;;
46723;SDS011;32463;48.298;11.620;2023-12-04T14:05:30;27.38;;;11.80;;
46723;SDS011;32463;48.298;11.620;2023-12-04T14:07:57;23.63;;;10.88;;
46723;SDS011;32463;48.298;11.620;2023-12-04T14:10:24;22.38;;;11.30;;
46723;SDS011;32463;48.298;11.620;2023-12-04T14:12:51;19.48;;;10.38;;
46723;SDS011;32463;48.298;11.620;2023-12-04T14:15:18;20.77;;;9.52;;
46723;SDS011;32463;48.298;11.620;2023-12-04T14:17:46;22.95;;;10.68;;
46723;SDS011;32463;48.298;11.620;2023-12-04T14:20:12;29.92;;;11.38;;
46723;SDS011;32463;48.298;11.620;2023-12-04T14:22:43;23.23;;;10.38;;
46723;SDS011;32463;48.298;11.620;2023-12-04T14:25:11;24.90;;;10.70;;
46723;SDS011;32463;48.298;11.620;2023-12-04T14:27:37;23.13;;;9.77;;
46723;SDS011;32463;48.298;11.620;2023-12-04T14:30:08;21.10;;;10.30;;
46723;SDS011;32463;48.298;11.620;2023-12-04T14:32:36;26.05;;;11.52;;
46723;SDS011;32463;48.298;11.620;2023-12-04T14:35:03;28.25;;;12.88;;
46723;SDS011;32463;48.298;11.620;2023-12-04T14:37:30;24.77;;;11.32;;
46723;SDS011;32463;48.298;11.620;2023-12-04T14:39:56;22.35;;;11.00;;
46723;SDS011;32463;48.298;11.620;2023-12-04T14:42:23;23.42;;;11.23;;
46723;SDS011;32463;48.298;11.620;2023-12-04T14:44:49;27.20;;;11.93;;
46723;SDS011;32463;48.298;11.620;2023-12-04T14:47:16;22.90;;;11.60;;
46723;SDS011;32463;48.298;11.620;2023-12-04T14:49:42;25.50;;;11.82;;
46723;SDS011;32463;48.298;11.620;2023-12-04T14:52:09;25.50;;;11.77;;
46723;SDS011;32463;48.298;11.620;2023-12-04T14:57:17;56.63;;;25.45;;
46723;SDS011;32463;48.298;11.620;2023-12-04T15:00:14;22.67;;;9.23;;